Time;durP1;ratioP1;P1;durP2;ratioP2;P2;SDS_P1;SDS_P2;PMS_P1;PMS_P2;Temp;Humidity;BMP_temperature;BMP_pressure;BME280_temperature;BME280_humidity;BME280_pressure;Samples;Min_cycle;Max_cycle;Signal;HPM_P1;HPM_P2
2021/03/10 00:00:34;;;;;;;20.20;11.48;;;;;;;-2.47;52.04;101438.98;1735498;81;21164;-59
2021/03/10 00:03:01;;;;;;;22.13;10.88;;;;;;;-2.51;52.17;101437.31;1751636;81;21516;-59
2021/03/10 00:05:29;;;;;;;23.18;11.12;;;;;;;-2.58;52.17;101435.22;1747755;81;21207;-59
2021/03/10 00:07:57;;;;;;;21.97;10.72;;;;;;;-2.66;52.42;101436.56;1732668;81;21183;-59
2021/03/10 00:10:26;;;;;;;23.20;10.58;;;;;;;-2.73;52.59;101437.94;1749877;80;21140;-59
2021/03/10 00:12:55;;;;;;;20.62;11.43;;;;;;;-2.80;52.70;101435.40;1752552;80;21211;-59
2021/03/10 00:15:22;;;;;;;23.47;12.20;;;;;;;-2.84;52.76;101439.29;1736708;80;21140;-59
2021/03/10 00:17:50;;;;;;;16.50;10.10;;;;;;;-2.86;52.72;101438.05;1758419;80;21382;-59
2021/03/10 00:20:18;;;;;;;20.40;11.03;;;;;;;-2.86;52.78;101436.75;1752529;80;21176;-59
2021/03/10 00:22:45;;;;;;;16.65;9.98;;;;;;;-2.89;52.84;101438.47;1730926;80;21168;-59
2021/03/10 00:25:13;;;;;;;20.23;11.35;;;;;;;-2.95;52.86;101435.96;1760295;80;21132;-59
2021/03/10 00:27:41;;;;;;;16.77;10.70;;;;;;;-3.03;53.09;101435.56;1726814;80;21167;-59
2021/03/10 00:30:10;;;;;;;19.90;11.43;;;;;;;-3.10;53.36;101433.05;1757293;80;22366;-59
2021/03/10 00:32:38;;;;;;;19.48;10.70;;;;;;;-3.14;53.37;101430.06;1756754;80;21602;-59
2021/03/10 00:35:08;;;;;;;19.00;11.25;;;;;;;-3.18;53.20;101429.23;1749454;80;21171;-58
2021/03/10 00:37:36;;;;;;;21.95;12.10;;;;;;;-3.27;53.21;101430.14;1732207;80;21142;-59
2021/03/10 00:40:05;;;;;;;17.45;10.95;;;;;;;-3.30;53.28;101429.31;1759603;80;21117;-59
2021/03/10 00:42:32;;;;;;;20.65;11.38;;;;;;;-3.34;53.01;101427.64;1760998;80;21195;-59
2021/03/10 00:45:00;;;;;;;27.67;12.10;;;;;;;-3.44;53.08;101425.09;1726397;82;21559;-59
2021/03/10 00:47:27;;;;;;;24.57;10.65;;;;;;;-3.49;53.20;101431.14;1746099;80;21607;-59
2021/03/10 00:49:57;;;;;;;22.87;12.13;;;;;;;-3.56;53.42;101432.89;1754379;80;21165;-59
2021/03/10 00:52:25;;;;;;;20.85;11.08;;;;;;;-3.62;53.53;101436.33;1758995;80;21136;-59
2021/03/10 00:54:52;;;;;;;21.00;11.95;;;;;;;-3.67;53.67;101438.06;1723371;80;21141;-59
2021/03/10 00:57:19;;;;;;;20.50;11.05;;;;;;;-3.69;53.72;101434.66;1688441;84;21885;-59
2021/03/10 00:59:47;;;;;;;25.57;11.97;;;;;;;-3.71;53.93;101432.52;1752175;80;21160;-59
2021/03/10 01:02:17;;;;;;;16.82;10.03;;;;;;;-3.73;54.16;101434.25;1724804;82;21175;-59
2021/03/10 01:04:44;;;;;;;20.00;10.53;;;;;;;-3.75;54.21;101434.66;1726701;80;21191;-59
2021/03/10 01:07:12;;;;;;;15.88;9.88;;;;;;;-3.78;54.21;101432.13;1722117;80;21997;-59
2021/03/10 01:09:39;;;;;;;18.40;10.45;;;;;;;-3.82;54.24;101431.27;1750189;80;21183;-59
2021/03/10 01:12:08;;;;;;;18.10;11.00;;;;;;;-3.86;54.26;101428.73;1747860;81;21462;-59
2021/03/10 01:14:36;;;;;;;18.65;10.93;;;;;;;-3.89;54.38;101427.01;1744753;81;21203;-59
2021/03/10 01:17:04;;;;;;;22.40;11.28;;;;;;;-3.90;54.34;101429.58;1733406;81;21207;-59
2021/03/10 01:19:31;;;;;;;20.57;10.43;;;;;;;-3.92;54.34;101426.61;1768403;81;23602;-59
2021/03/10 01:21:59;;;;;;;17.48;9.08;;;;;;;-3.95;54.34;101423.16;1763438;80;21188;-59
2021/03/10 01:24:26;;;;;;;21.50;10.05;;;;;;;-3.97;54.30;101423.61;1738975;81;21125;-59
2021/03/10 01:26:53;;;;;;;18.00;10.03;;;;;;;-3.96;54.13;101424.89;1741418;81;21108;-59
2021/03/10 01:29:21;;;;;;;16.77;10.13;;;;;;;-4.00;54.16;101428.75;1742897;81;21093;-59
2021/03/10 01:31:49;;;;;;;18.12;9.68;;;;;;;-4.04;54.19;101416.78;1754602;81;23497;-59
2021/03/10 01:34:17;;;;;;;16.75;10.55;;;;;;;-4.02;54.34;101422.77;1741326;81;21125;-59
2021/03/10 01:36:45;;;;;;;18.27;10.10;;;;;;;-4.01;54.53;101417.63;1739104;81;21156;-59
2021/03/10 01:39:12;;;;;;;16.73;10.15;;;;;;;-3.95;54.58;101421.88;1734260;81;21196;-59
2021/03/10 01:41:40;;;;;;;18.12;10.93;;;;;;;-3.89;54.42;101424.88;1742837;80;21184;-59
2021/03/10 01:44:07;;;;;;;17.50;10.90;;;;;;;-3.87;54.17;101429.58;1734195;81;21276;-59
2021/03/10 01:46:41;;;;;;;20.85;9.68;;;;;;;-3.90;54.34;101425.73;1726070;81;21140;-59
2021/03/10 01:49:09;;;;;;;20.68;10.05;;;;;;;-3.91;54.42;101432.59;1758570;81;21128;-59
2021/03/10 01:51:36;;;;;;;20.60;9.95;;;;;;;-3.95;54.53;101424.45;1747799;81;21172;-59
2021/03/10 01:54:05;;;;;;;18.30;10.18;;;;;;;-4.01;54.64;101426.63;1749308;81;21199;-59
2021/03/10 01:56:32;;;;;;;18.42;9.85;;;;;;;-4.01;54.70;101429.63;1739007;81;21161;-59
2021/03/10 01:59:01;;;;;;;21.60;9.20;;;;;;;-4.04;54.74;101427.91;1736716;82;21108;-59
2021/03/10 02:01:28;;;;;;;14.23;8.58;;;;;;;-4.06;54.83;101431.36;1741666;81;21117;-59
2021/03/10 02:03:56;;;;;;;19.07;9.43;;;;;;;-4.05;54.79;101430.48;1742546;81;21196;-59
2021/03/10 02:06:46;;;;;;;18.77;9.05;;;;;;;-4.05;54.78;101435.62;1754439;81;21159;-59
2021/03/10 02:09:19;;;;;;;16.27;9.83;;;;;;;-4.06;54.79;101434.78;1745710;80;21469;-58
2021/03/10 02:11:51;;;;;;;18.82;9.85;;;;;;;-4.06;54.61;101435.22;1733039;82;21230;-58
2021/03/10 02:14:24;;;;;;;20.75;10.23;;;;;;;-4.06;54.55;101437.79;1753073;80;21176;-58
2021/03/10 02:16:57;;;;;;;19.60;9.80;;;;;;;-4.07;54.51;101438.63;1752862;80;21157;-58
2021/03/10 02:20:04;;;;;;;16.40;9.48;;;;;;;-4.10;54.48;101442.09;1765687;80;21172;-58
2021/03/10 02:23:23;;;;;;;15.08;9.10;;;;;;;-4.18;54.65;101432.25;1774442;80;21778;-58
2021/03/10 02:26:21;;;;;;;19.15;9.00;;;;;;;-4.30;54.72;101440.40;1723870;82;21211;-58
2021/03/10 02:28:49;;;;;;;19.02;8.43;;;;;;;-4.39;54.80;101438.27;1755590;80;21124;-59
2021/03/10 02:31:16;;;;;;;19.12;9.53;;;;;;;-4.47;55.00;101438.30;1727822;82;21204;-59
2021/03/10 02:33:44;;;;;;;16.75;9.93;;;;;;;-4.49;54.96;101437.42;1769522;80;21172;-59
2021/03/10 02:36:12;;;;;;;20.35;11.40;;;;;;;-4.51;54.78;101435.28;1761514;80;21967;-59
2021/03/10 02:38:43;;;;;;;19.20;9.98;;;;;;;-4.50;54.87;101430.59;1763498;80;21176;-59
2021/03/10 02:41:10;;;;;;;18.95;10.08;;;;;;;-4.49;54.92;101436.13;1759488;80;21196;-59
2021/03/10 02:43:39;;;;;;;14.80;8.53;;;;;;;-4.49;54.83;101437.02;1721067;82;21207;-59
2021/03/10 02:46:06;;;;;;;15.40;8.90;;;;;;;-4.50;54.76;101434.00;1724337;80;21153;-59
2021/03/10 02:48:37;;;;;;;18.50;9.65;;;;;;;-4.52;55.01;101438.30;1762622;80;21195;-59
2021/03/10 02:51:05;;;;;;;15.83;8.85;;;;;;;-4.54;55.15;101439.13;1744984;80;21270;-59
2021/03/10 02:53:34;;;;;;;19.62;8.75;;;;;;;-4.56;55.29;101439.57;1730832;81;21124;-59
2021/03/10 02:56:04;;;;;;;12.13;7.87;;;;;;;-4.59;55.33;101434.03;1677544;84;21176;-59
2021/03/10 02:58:32;;;;;;;16.82;9.88;;;;;;;-4.59;55.26;101440.45;1690088;83;21148;-59
2021/03/10 03:01:00;;;;;;;16.45;9.23;;;;;;;-4.59;55.19;101433.15;1667655;83;21152;-59
2021/03/10 03:03:27;;;;;;;18.10;9.90;;;;;;;-4.58;55.10;101430.58;1673888;83;21809;-59
2021/03/10 03:05:55;;;;;;;17.37;9.80;;;;;;;-4.58;55.08;101436.16;1712542;83;21199;-59
2021/03/10 03:08:22;;;;;;;17.65;10.45;;;;;;;-4.56;55.01;101431.87;1689965;83;21998;-59
2021/03/10 03:10:52;;;;;;;21.48;10.25;;;;;;;-4.57;54.99;101436.16;1703711;83;21120;-59
2021/03/10 03:13:20;;;;;;;21.20;9.90;;;;;;;-4.58;54.99;101438.28;1635586;86;21996;-59
2021/03/10 03:15:54;;;;;;;18.37;9.60;;;;;;;-4.59;54.89;101440.45;1638958;86;21217;-59
2021/03/10 03:18:22;;;;;;;18.00;10.23;;;;;;;-4.62;54.96;101436.59;1620143;87;21668;-59
2021/03/10 03:20:50;;;;;;;20.72;10.80;;;;;;;-4.65;55.00;101444.73;1638167;86;21130;-59
2021/03/10 03:23:19;;;;;;;18.95;10.60;;;;;;;-4.67;54.85;101442.16;1656157;86;21178;-59
2021/03/10 03:25:47;;;;;;;18.17;10.60;;;;;;;-4.68;54.85;101445.57;1650969;85;21332;-59
2021/03/10 03:28:18;;;;;;;19.37;9.55;;;;;;;-4.68;54.85;101446.41;1674202;85;21212;-59
2021/03/10 03:30:46;;;;;;;17.32;9.58;;;;;;;-4.61;54.77;101446.42;1678659;85;21193;-59
2021/03/10 03:33:23;;;;;;;15.98;9.53;;;;;;;-4.62;54.62;101446.86;1655028;85;21145;-59
2021/03/10 03:35:53;;;;;;;16.60;9.30;;;;;;;-4.69;54.62;101444.72;1637081;86;21209;-59
2021/03/10 03:38:25;;;;;;;18.05;9.08;;;;;;;-4.72;54.84;101455.43;1705075;83;21209;-59
2021/03/10 03:40:53;;;;;;;19.52;8.75;;;;;;;-4.73;54.82;101457.12;1644518;86;21257;-59
2021/03/10 03:43:23;;;;;;;17.30;9.50;;;;;;;-4.78;54.72;101454.98;1651159;85;21603;-59
2021/03/10 03:45:51;;;;;;;16.07;9.35;;;;;;;-4.82;54.92;101454.56;1638217;86;21161;-59
2021/03/10 03:48:19;;;;;;;15.32;9.28;;;;;;;-4.85;55.07;101450.27;1680036;83;21168;-59
2021/03/10 03:50:47;;;;;;;17.25;9.28;;;;;;;-4.87;55.03;101450.70;1700505;83;21208;-59
2021/03/10 03:53:15;;;;;;;19.20;9.73;;;;;;;-4.90;55.09;101448.13;1691175;83;21196;-59
2021/03/10 03:55:43;;;;;;;17.05;9.83;;;;;;;-4.92;55.07;101449.00;1623249;86;21193;-59
2021/03/10 03:58:10;;;;;;;20.85;10.25;;;;;;;-4.91;54.94;101450.69;1639467;86;21165;-59
2021/03/10 04:00:38;;;;;;;13.48;9.20;;;;;;;-4.93;54.87;101450.68;1617865;86;21232;-59
2021/03/10 04:03:05;;;;;;;16.30;9.05;;;;;;;-4.93;54.89;101454.97;1648452;86;21414;-59
2021/03/10 04:05:33;;;;;;;18.23;9.48;;;;;;;-4.91;54.77;101452.84;1630855;86;21539;-59
2021/03/10 04:08:02;;;;;;;15.63;9.58;;;;;;;-4.90;54.68;101453.70;1626290;86;21431;-59
2021/03/10 04:10:34;;;;;;;18.50;9.90;;;;;;;-4.90;54.59;101453.70;1682004;82;21541;-58
2021/03/10 04:13:02;;;;;;;17.45;8.38;;;;;;;-4.93;54.71;101448.55;1683020;84;21141;-56
2021/03/10 04:15:32;;;;;;;18.32;9.73;;;;;;;-4.98;54.86;101452.83;1734472;81;21546;-57
2021/03/10 04:18:00;;;;;;;21.10;10.18;;;;;;;-5.01;54.87;101456.23;1747811;81;21132;-58
2021/03/10 04:20:27;;;;;;;16.80;8.80;;;;;;;-5.04;54.85;101457.09;1730806;81;21208;-57
2021/03/10 04:22:54;;;;;;;16.70;10.38;;;;;;;-5.06;54.84;101454.97;1762925;81;21144;-57
2021/03/10 04:25:22;;;;;;;15.05;9.90;;;;;;;-5.06;54.76;101458.81;1731357;81;21563;-57
2021/03/10 04:27:50;;;;;;;18.95;11.12;;;;;;;-5.04;54.71;101461.39;1728023;82;21255;-57
2021/03/10 04:30:20;;;;;;;18.73;10.75;;;;;;;-5.06;54.75;101461.38;1735198;81;21595;-57
2021/03/10 04:32:47;;;;;;;17.12;9.23;;;;;;;-5.05;54.84;101463.51;1749915;81;21113;-57
2021/03/10 04:35:16;;;;;;;19.62;9.75;;;;;;;-5.04;54.81;101461.39;1749542;81;21208;-57
2021/03/10 04:37:44;;;;;;;26.87;10.10;;;;;;;-5.05;54.86;101462.23;1745384;81;21152;-57
2021/03/10 04:40:13;;;;;;;15.00;9.45;;;;;;;-5.05;55.08;101464.36;1749082;81;21654;-58
2021/03/10 04:42:40;;;;;;;19.05;9.63;;;;;;;-5.01;55.17;101467.78;1751860;81;21633;-57
2021/03/10 04:45:14;;;;;;;15.80;9.45;;;;;;;-4.97;55.19;101468.67;1721411;81;21215;-57
2021/03/10 04:47:44;;;;;;;15.55;9.60;;;;;;;-4.99;55.20;101470.36;1754410;81;21231;-57
2021/03/10 04:50:13;;;;;;;18.95;9.78;;;;;;;-5.00;55.25;101468.66;1670507;84;21225;-57
2021/03/10 04:52:41;;;;;;;19.85;10.23;;;;;;;-5.01;55.18;101466.94;1679257;84;21286;-57
2021/03/10 04:55:10;;;;;;;14.55;8.33;;;;;;;-5.04;55.35;101463.52;1746121;79;21235;-57
2021/03/10 04:57:38;;;;;;;18.70;10.38;;;;;;;-4.99;55.45;101471.23;1722879;81;21227;-57
2021/03/10 05:00:10;;;;;;;18.27;10.20;;;;;;;-4.92;55.30;101466.53;1726389;80;21308;-58
2021/03/10 05:02:38;;;;;;;27.25;9.93;;;;;;;-4.88;55.23;101466.09;1743989;79;21199;-58
2021/03/10 05:05:09;;;;;;;17.90;9.70;;;;;;;-4.88;55.27;101471.23;1745221;79;22655;-58
2021/03/10 05:07:37;;;;;;;16.48;9.13;;;;;;;-4.84;55.34;101471.69;1745221;81;21235;-58
2021/03/10 05:10:08;;;;;;;20.40;10.55;;;;;;;-4.80;55.40;101472.54;1750420;79;21235;-58
2021/03/10 05:12:39;;;;;;;19.32;10.65;;;;;;;-4.76;55.43;101477.66;1751545;80;21255;-59
2021/03/10 05:15:08;;;;;;;18.60;9.60;;;;;;;-4.70;55.47;101481.52;1761315;80;21195;-59
2021/03/10 05:17:37;;;;;;;18.85;9.18;;;;;;;-4.65;55.51;101479.41;1750501;79;21208;-59
2021/03/10 05:20:06;;;;;;;17.75;8.88;;;;;;;-4.60;55.60;101478.97;1766396;80;21243;-59
2021/03/10 05:22:34;;;;;;;21.57;11.00;;;;;;;-4.51;55.65;101484.09;1757110;79;21116;-59
2021/03/10 05:25:05;;;;;;;24.40;9.33;;;;;;;-4.42;55.63;101481.54;1752907;80;21215;-59
2021/03/10 05:27:33;;;;;;;20.25;11.08;;;;;;;-4.36;55.64;101487.94;1755547;80;21160;-58
2021/03/10 05:30:01;;;;;;;20.70;11.73;;;;;;;-4.31;55.75;101495.21;1753501;80;21211;-58
2021/03/10 05:32:29;;;;;;;17.80;11.03;;;;;;;-4.22;55.88;101492.21;1754145;80;21187;-60
2021/03/10 05:34:57;;;;;;;21.02;12.98;;;;;;;-4.12;55.95;101495.19;1754486;80;21254;-59
2021/03/10 05:37:24;;;;;;;23.90;13.40;;;;;;;-4.07;56.06;101491.34;1702682;84;21240;-59
2021/03/10 05:39:52;;;;;;;20.95;10.85;;;;;;;-4.01;56.22;101499.89;1694722;83;21144;-60
2021/03/10 05:42:19;;;;;;;21.57;12.73;;;;;;;-3.88;56.26;101493.02;1697224;83;21266;-59
2021/03/10 05:44:51;;;;;;;27.45;12.28;;;;;;;-3.80;56.13;101495.55;1703686;83;21195;-58
2021/03/10 05:47:19;;;;;;;24.75;12.68;;;;;;;-3.70;56.16;101492.53;1697346;83;21184;-58
2021/03/10 05:49:48;;;;;;;36.28;14.25;;;;;;;-3.62;56.43;101501.93;1706276;83;21199;-58
2021/03/10 05:52:17;;;;;;;26.10;13.83;;;;;;;-3.50;56.41;101494.59;1696459;82;21180;-58
2021/03/10 05:54:44;;;;;;;28.52;14.80;;;;;;;-3.42;56.34;101499.72;1696946;83;21637;-60
2021/03/10 05:57:12;;;;;;;20.17;12.80;;;;;;;-3.32;56.57;101497.97;1664629;83;21222;-58
2021/03/10 05:59:39;;;;;;;26.07;13.48;;;;;;;-3.19;56.50;101496.61;1697974;83;21191;-59
2021/03/10 06:02:07;;;;;;;22.20;12.80;;;;;;;-3.08;56.61;101502.13;1694662;83;21207;-59
2021/03/10 06:04:40;;;;;;;23.10;12.37;;;;;;;-2.97;56.54;101508.52;1695090;83;21141;-59
2021/03/10 06:07:24;;;;;;;18.52;9.58;;;;;;;-2.86;56.45;101502.44;1667097;83;21249;-60
2021/03/10 06:10:02;;;;;;;12.93;6.58;;;;;;;-2.71;56.28;101509.62;1694539;83;21164;-64
2021/03/10 06:12:45;;;;;;;18.75;10.35;;;;;;;-2.51;55.49;101514.63;1727875;81;21797;-60
2021/03/10 06:15:14;;;;;;;11.78;7.25;;;;;;;-2.35;55.36;101517.95;1747465;81;21534;-60
2021/03/10 06:17:49;;;;;;;15.72;8.03;;;;;;;-2.21;54.99;101511.39;1734620;80;21187;-61
2021/03/10 06:20:31;;;;;;;16.62;7.28;;;;;;;-2.09;54.59;101516.42;1746161;81;21433;-63
2021/03/10 06:22:59;;;;;;;15.20;6.92;;;;;;;-1.93;54.04;101519.72;1750202;81;21239;-61
2021/03/10 06:25:37;;;;;;;9.50;5.47;;;;;;;-1.78;53.35;101521.27;1745529;81;21650;-61
2021/03/10 06:28:05;;;;;;;10.93;4.92;;;;;;;-1.74;52.77;101513.92;1747739;81;21192;-62
2021/03/10 06:30:43;;;;;;;7.50;4.37;;;;;;;-1.61;52.66;101519.81;1748824;79;21199;-61
2021/03/10 06:33:23;;;;;;;10.98;4.25;;;;;;;-1.47;52.22;101519.20;1733106;81;21215;-63
2021/03/10 06:35:50;;;;;;;8.48;3.75;;;;;;;-1.39;51.74;101517.83;1745126;81;21168;-61
2021/03/10 06:38:20;;;;;;;9.18;3.87;;;;;;;-1.30;51.65;101517.70;1747754;81;21156;-62
2021/03/10 06:40:56;;;;;;;7.40;3.25;;;;;;;-1.22;51.45;101515.88;1728055;81;21227;-61
2021/03/10 06:43:38;;;;;;;7.33;3.60;;;;;;;-1.17;50.37;101518.41;1743257;81;21144;-61
2021/03/10 06:46:14;;;;;;;8.43;4.05;;;;;;;-1.14;50.01;101519.67;1739070;81;21320;-63
2021/03/10 06:49:03;;;;;;;7.03;3.27;;;;;;;-1.07;49.98;101525.16;1725685;81;21196;-64
2021/03/10 06:51:32;;;;;;;8.88;4.05;;;;;;;-1.02;49.91;101522.52;1761398;81;21657;-62
2021/03/10 06:54:00;;;;;;;10.82;3.58;;;;;;;-0.94;49.84;101523.28;1748687;81;21195;-63
2021/03/10 06:56:30;;;;;;;6.00;2.60;;;;;;;-0.83;49.60;101521.37;1743224;81;21168;-61
2021/03/10 06:59:04;;;;;;;7.28;3.10;;;;;;;-0.77;49.10;101517.86;1725872;82;21224;-61
2021/03/10 07:01:42;;;;;;;7.37;3.25;;;;;;;-0.71;48.75;101518.20;1748158;81;21666;-59
2021/03/10 07:04:12;;;;;;;7.00;3.02;;;;;;;-0.63;48.41;101522.81;1731456;82;21227;-62
2021/03/10 07:06:40;;;;;;;6.85;3.33;;;;;;;-0.56;48.19;101521.84;1748802;81;21227;-64
2021/03/10 07:09:17;;;;;;;6.42;3.10;;;;;;;-0.47;47.95;101520.83;1747094;81;21191;-60
2021/03/10 07:11:45;;;;;;;6.28;2.75;;;;;;;-0.39;47.70;101522.86;1724947;80;21218;-63
2021/03/10 07:14:13;;;;;;;7.12;3.30;;;;;;;-0.31;47.51;101529.22;1753918;80;21486;-63
2021/03/10 07:16:42;;;;;;;5.62;2.17;;;;;;;-0.27;47.19;101526.56;1724660;80;21148;-64
2021/03/10 07:19:10;;;;;;;6.87;3.05;;;;;;;-0.22;47.00;101534.22;1703534;80;21203;-68
2021/03/10 07:21:56;;;;;;;5.35;2.47;;;;;;;-0.18;46.40;101522.95;1725866;80;22407;-70
2021/03/10 07:24:56;;;;;;;9.18;2.72;;;;;;;-0.11;45.59;101526.30;1754510;80;21217;-66
2021/03/10 07:27:24;;;;;;;5.78;2.95;;;;;;;-0.02;45.70;101524.82;1753402;80;21223;-69
2021/03/10 07:29:59;;;;;;;5.50;2.47;;;;;;;0.08;45.57;101520.34;1760602;80;21132;-71
2021/03/10 07:32:26;;;;;;;8.70;3.00;;;;;;;0.14;45.28;101521.08;1733466;80;21218;-67
2021/03/10 07:35:11;;;;;;;5.78;2.12;;;;;;;0.21;44.68;101523.12;1751609;80;21638;-68
2021/03/10 07:37:53;;;;;;;3.98;1.65;;;;;;;0.25;43.95;101518.28;1745041;80;21135;-62
2021/03/10 07:40:23;;;;;;;4.60;1.60;;;;;;;0.28;43.63;101516.09;1731298;80;21669;-64
2021/03/10 07:42:56;;;;;;;5.33;2.10;;;;;;;0.32;42.90;101513.84;1732539;80;21160;-64
2021/03/10 07:45:31;;;;;;;6.75;2.20;;;;;;;0.36;42.85;101512.91;1753448;80;21505;-66
2021/03/10 07:47:59;;;;;;;5.33;1.77;;;;;;;0.39;42.40;101513.28;1718293;80;21258;-65
2021/03/10 07:50:44;;;;;;;4.85;1.67;;;;;;;0.44;42.30;101510.16;1755976;80;21272;-65
2021/03/10 07:53:15;;;;;;;3.72;1.30;;;;;;;0.49;41.53;101504.02;1756008;80;21179;-65
2021/03/10 07:55:47;;;;;;;4.05;1.47;;;;;;;0.54;41.27;101506.08;1752581;80;21150;-65
2021/03/10 07:58:29;;;;;;;4.55;1.55;;;;;;;0.64;40.82;101498.97;1755295;80;21685;-64
2021/03/10 08:00:58;;;;;;;8.70;2.17;;;;;;;0.76;40.65;101501.75;1753017;79;21183;-63
2021/03/10 08:03:33;;;;;;;4.78;1.42;;;;;;;0.84;39.89;101510.22;1757463;80;21211;-64
2021/03/10 08:06:06;;;;;;;2.95;1.10;;;;;;;0.90;39.34;101508.77;1727488;82;21195;-64
2021/03/10 08:08:38;;;;;;;3.52;1.27;;;;;;;0.94;39.02;101510.84;1734387;80;21175;-67
2021/03/10 08:11:17;;;;;;;3.40;1.42;;;;;;;0.99;39.18;101495.20;1724322;80;21197;-64
2021/03/10 08:13:48;;;;;;;3.67;1.00;;;;;;;1.03;38.65;101499.45;1730878;80;21195;-64
2021/03/10 08:16:16;;;;;;;4.20;1.50;;;;;;;1.06;38.63;101503.23;1722363;80;21163;-62
2021/03/10 08:18:46;;;;;;;3.55;1.22;;;;;;;1.07;38.41;101504.50;1749372;80;21374;-60
2021/03/10 08:21:16;;;;;;;4.92;1.42;;;;;;;1.11;38.12;101498.83;1758657;80;21137;-61
2021/03/10 08:23:46;;;;;;;8.03;2.00;;;;;;;1.16;38.22;101496.98;1732163;80;21152;-60
2021/03/10 08:26:17;;;;;;;5.80;1.82;;;;;;;1.17;37.88;101496.08;1725928;80;21207;-60
2021/03/10 08:28:45;;;;;;;10.13;1.22;;;;;;;1.22;37.66;101495.98;1754442;80;22039;-58
2021/03/10 08:31:13;;;;;;;6.42;2.37;;;;;;;1.28;37.65;101496.69;1749130;80;21176;-57
2021/03/10 08:33:49;;;;;;;5.65;2.08;;;;;;;1.39;37.37;101487.80;1749011;80;21576;-60
2021/03/10 08:36:17;;;;;;;7.35;2.27;;;;;;;1.39;37.25;101487.34;1750933;80;21254;-60
2021/03/10 08:38:45;;;;;;;7.22;2.15;;;;;;;1.41;37.41;101485.59;1727078;80;21211;-60
2021/03/10 08:41:14;;;;;;;8.15;2.17;;;;;;;1.42;37.67;101490.33;1724287;80;21187;-61
2021/03/10 08:43:41;;;;;;;5.05;2.00;;;;;;;1.41;37.78;101493.38;1728265;82;21156;-61
2021/03/10 08:46:09;;;;;;;7.00;2.30;;;;;;;1.44;38.04;101493.73;1732100;80;21610;-61
2021/03/10 08:48:36;;;;;;;6.35;2.87;;;;;;;1.50;38.10;101497.48;1762665;80;21698;-61
2021/03/10 08:51:04;;;;;;;5.85;2.12;;;;;;;1.58;37.72;101492.95;1759352;80;21122;-60
2021/03/10 08:53:33;;;;;;;6.15;2.70;;;;;;;1.61;37.82;101494.15;1727822;80;21159;-62
2021/03/10 08:56:06;;;;;;;6.33;2.12;;;;;;;1.63;37.78;101494.98;1728139;80;21163;-61
2021/03/10 08:58:35;;;;;;;5.55;2.52;;;;;;;1.66;37.92;101492.32;1757005;80;21579;-59
2021/03/10 09:01:14;;;;;;;4.92;1.87;;;;;;;1.68;37.69;101483.17;1752784;80;21160;-59
2021/03/10 09:03:44;;;;;;;6.15;2.00;;;;;;;1.71;37.57;101485.70;1752827;80;21631;-59
2021/03/10 09:06:13;;;;;;;4.85;1.90;;;;;;;1.75;37.33;101482.16;1723272;80;21148;-58
2021/03/10 09:08:41;;;;;;;5.47;2.12;;;;;;;1.76;37.10;101475.20;1752960;80;21191;-60
2021/03/10 09:11:10;;;;;;;11.15;2.83;;;;;;;1.79;36.99;101472.08;1756640;80;21199;-59
2021/03/10 09:24:22;;;;;;;7.10;1.70;;;;;;;1.86;36.85;101471.02;1825882;77;22879;-60
2021/03/10 09:26:50;;;;;;;6.55;1.95;;;;;;;1.86;36.85;101471.02;1764595;78;21176;-59
2021/03/10 09:29:19;;;;;;;5.90;2.30;;;;;;;1.90;37.17;101473.54;1713892;80;21154;-60
2021/03/10 09:31:56;;;;;;;;;;;;;;;1.94;36.64;101466.09;1864985;76;22201;-59
2021/03/10 09:34:29;;;;;;;7.03;1.82;;;;;;;1.98;36.53;101472.44;1826850;76;20306;-59
2021/03/10 09:37:13;;;;;;;5.80;2.37;;;;;;;1.93;36.82;101471.71;1825860;76;21595;-60
2021/03/10 09:39:49;;;;;;;5.75;2.00;;;;;;;2.03;36.35;101471.90;1823992;77;21198;-62
2021/03/10 09:42:21;;;;;;;4.17;1.80;;;;;;;2.08;36.33;101468.31;1836643;76;21136;-59
2021/03/10 09:44:52;;;;;;;6.70;2.05;;;;;;;2.11;36.04;101459.15;1811358;77;21219;-59
2021/03/10 09:47:24;;;;;;;7.55;2.30;;;;;;;2.12;36.26;101461.70;1826622;76;21648;-59
2021/03/10 09:49:57;;;;;;;5.03;1.60;;;;;;;2.17;36.04;101468.91;1803140;77;21186;-58
2021/03/10 09:52:39;;;;;;;5.75;2.20;;;;;;;2.21;35.60;101468.38;1819834;77;21048;-60
2021/03/10 09:55:18;;;;;;;7.15;2.85;;;;;;;2.25;35.39;101466.55;1826148;76;21202;-60
2021/03/10 09:57:47;;;;;;;7.25;2.83;;;;;;;2.23;35.41;101467.88;1831423;77;21590;-59
2021/03/10 10:00:20;;;;;;;10.63;2.40;;;;;;;2.28;34.62;101471.66;1823614;77;21100;-60
2021/03/10 10:02:49;;;;;;;4.97;1.87;;;;;;;2.28;34.70;101471.66;1839080;77;23176;-60
2021/03/10 10:05:23;;;;;;;5.95;2.08;;;;;;;2.31;34.64;101472.42;1831653;77;21662;-60
2021/03/10 10:07:53;;;;;;;4.58;1.85;;;;;;;2.33;34.62;101465.89;1832663;77;21232;-61
2021/03/10 10:10:25;;;;;;;4.50;1.42;;;;;;;2.42;34.66;101464.31;1832492;77;21198;-61
2021/03/10 10:13:04;;;;;;;4.42;1.57;;;;;;;2.52;34.51;101467.50;1805089;77;21188;-60
2021/03/10 10:15:34;;;;;;;5.37;2.22;;;;;;;2.57;33.97;101464.31;1807230;78;21382;-60
2021/03/10 10:18:06;;;;;;;6.10;2.27;;;;;;;2.56;33.62;101459.58;1805023;78;21192;-60
2021/03/10 10:20:36;;;;;;;7.47;2.40;;;;;;;2.60;33.45;101457.28;1785933;78;22550;-59
2021/03/10 10:23:05;;;;;;;5.72;2.15;;;;;;;2.65;33.96;101450.66;1808852;77;21137;-60
2021/03/10 10:27:13;;;;;;;8.38;2.33;;;;;;;2.82;33.49;101445.40;1872382;75;22611;-60
2021/03/10 10:29:43;;;;;;;5.33;2.15;;;;;;;2.80;33.37;101451.94;1810481;77;21112;-61
2021/03/10 10:32:12;;;;;;;7.97;3.00;;;;;;;2.82;33.48;101451.44;1841369;77;22967;-63
2021/03/10 10:34:41;;;;;;;12.13;3.30;;;;;;;2.87;32.81;101450.01;1829581;77;21657;-62
2021/03/10 10:37:10;;;;;;;6.08;2.27;;;;;;;2.90;33.20;101438.22;1821635;77;21214;-62
2021/03/10 10:39:39;;;;;;;6.60;2.70;;;;;;;2.93;33.68;101442.03;1780228;80;21242;-62
2021/03/10 10:42:09;;;;;;;10.32;3.12;;;;;;;2.95;33.37;101440.22;1780057;78;21189;-63
2021/03/10 10:44:38;;;;;;;5.58;2.20;;;;;;;3.01;33.36;101437.44;1772727;79;21090;-62
2021/03/10 10:47:07;;;;;;;5.70;2.30;;;;;;;3.05;33.35;101436.43;1753407;80;21772;-62
2021/03/10 10:49:36;;;;;;;8.38;2.22;;;;;;;3.08;33.28;101439.40;1773885;79;21172;-63
2021/03/10 10:52:07;;;;;;;9.98;2.47;;;;;;;3.06;33.15;101438.14;1798062;78;21152;-64
2021/03/10 10:54:37;;;;;;;7.50;2.50;;;;;;;3.05;32.88;101439.03;1802073;78;21222;-64
2021/03/10 10:57:06;;;;;;;6.47;2.50;;;;;;;3.08;33.20;101436.34;1776943;78;21412;-64
2021/03/10 10:59:44;;;;;;;6.60;2.58;;;;;;;3.15;33.34;101437.83;1796209;78;23486;-61
2021/03/10 11:02:14;;;;;;;11.22;2.80;;;;;;;3.14;33.45;101433.98;1777575;78;21236;-64
2021/03/10 11:04:44;;;;;;;6.62;2.35;;;;;;;3.13;33.67;101431.84;1777499;78;21445;-63
2021/03/10 11:07:14;;;;;;;7.45;2.72;;;;;;;3.14;33.68;101428.35;1783269;78;20994;-62
2021/03/10 11:09:42;;;;;;;4.85;1.65;;;;;;;3.15;33.42;101422.23;1780797;80;21207;-64
2021/03/10 11:12:13;;;;;;;6.65;2.72;;;;;;;3.21;33.62;101422.93;1756413;80;21162;-63
2021/03/10 11:14:44;;;;;;;4.92;2.45;;;;;;;3.26;33.37;101421.89;1756197;80;21172;-63
2021/03/10 11:17:14;;;;;;;7.53;2.10;;;;;;;3.31;33.20;101420.42;1779245;78;21559;-65
2021/03/10 11:19:43;;;;;;;7.60;2.35;;;;;;;3.38;33.42;101418.04;1779579;78;21065;-64
2021/03/10 11:22:15;;;;;;;5.97;2.58;;;;;;;3.49;33.41;101417.20;1777006;78;22292;-62
2021/03/10 11:24:43;;;;;;;6.53;2.12;;;;;;;3.59;33.49;101419.05;1779235;78;21563;-66
2021/03/10 11:27:17;;;;;;;6.28;2.30;;;;;;;3.70;32.49;101410.89;1780320;78;21124;-64
2021/03/10 11:29:42;;;;;;;14.03;2.08;;;;;;;3.78;32.11;101412.73;1774361;78;22354;-62
2021/03/10 11:32:10;;;;;;;4.75;2.00;;;;;;;3.83;32.22;101417.80;1749847;78;21219;-61
2021/03/10 11:34:40;;;;;;;7.03;2.37;;;;;;;3.85;31.67;101414.25;1779870;78;21199;-61
2021/03/10 11:37:08;;;;;;;9.35;2.25;;;;;;;3.88;31.79;101407.63;1750631;78;21271;-61
2021/03/10 11:39:37;;;;;;;7.08;2.77;;;;;;;3.94;32.20;101403.95;1784264;78;21176;-61
2021/03/10 11:42:06;;;;;;;8.80;2.27;;;;;;;4.00;31.79;101405.47;1779593;79;22121;-64
2021/03/10 11:44:33;;;;;;;5.60;2.20;;;;;;;4.03;31.16;101400.16;1753711;80;21687;-62
2021/03/10 11:47:01;;;;;;;5.45;1.60;;;;;;;4.02;30.98;101394.57;1779495;80;21192;-62
2021/03/10 11:49:28;;;;;;;6.47;1.67;;;;;;;4.02;31.45;101392.80;1779821;78;21156;-63